Time;durP1;ratioP1;P1;durP2;ratioP2;P2;SDS_P1;SDS_P2;PMS_P1;PMS_P2;Temp;Humidity;BMP_temperature;BMP_pressure;BME280_temperature;BME280_humidity;BME280_pressure;Samples;Min_cycle;Max_cycle;Signal;HPM_P1;HPM_P2
2021/09/26 00:00:57;;;;;;;20.13;15.63;;;19.10;74.50;;;;;;4964373;28;20184;-90
2021/09/26 00:03:23;;;;;;;16.57;13.30;;;19.00;74.20;;;;;;4964636;28;20204;-90
2021/09/26 00:05:49;;;;;;;19.00;13.13;;;19.10;74.60;;;;;;4978655;28;20227;-90
2021/09/26 00:08:15;;;;;;;24.87;15.07;;;19.20;73.80;;;;;;4974095;28;20187;-90
2021/09/26 00:10:41;;;;;;;17.77;13.50;;;19.30;73.50;;;;;;4975188;28;20250;-90
2021/09/26 00:13:06;;;;;;;20.23;14.67;;;19.30;73.30;;;;;;4973764;28;20439;-90
2021/09/26 00:15:33;;;;;;;21.20;12.30;;;19.40;73.00;;;;;;4974762;28;21001;-90
2021/09/26 00:17:59;;;;;;;18.02;13.68;;;19.30;72.80;;;;;;4963134;28;20494;-90
2021/09/26 00:20:26;;;;;;;18.00;13.75;;;19.40;72.60;;;;;;4965280;29;20177;-90
2021/09/26 00:22:52;;;;;;;18.15;14.55;;;19.30;72.80;;;;;;4959949;28;20228;-89
2021/09/26 00:25:19;;;;;;;20.33;14.00;;;19.30;72.80;;;;;;4960425;28;20212;-89
2021/09/26 00:27:46;;;;;;;19.90;13.35;;;19.40;72.40;;;;;;4975976;28;20487;-89
2021/09/26 00:30:16;;;;;;;17.08;13.18;;;19.30;72.50;;;;;;4992717;28;20275;-89
2021/09/26 00:32:44;;;;;;;16.42;12.68;;;19.40;72.60;;;;;;4982339;28;20208;-90
2021/09/26 00:35:10;;;;;;;22.48;13.15;;;19.40;72.40;;;;;;4974703;28;20737;-90
2021/09/26 00:37:37;;;;;;;19.05;14.70;;;19.40;72.60;;;;;;4957909;28;20198;-90
2021/09/26 00:40:05;;;;;;;18.33;13.60;;;19.50;72.40;;;;;;4965643;28;20276;-89
2021/09/26 00:42:30;;;;;;;19.10;14.82;;;19.50;72.30;;;;;;4954800;28;20224;-89
2021/09/26 00:44:57;;;;;;;16.67;14.63;;;19.50;72.10;;;;;;4955925;28;20204;-89
2021/09/26 00:47:26;;;;;;;24.60;15.15;;;19.40;72.00;;;;;;4954842;28;20195;-90
2021/09/26 00:49:53;;;;;;;21.45;13.18;;;19.50;71.90;;;;;;4954518;28;20184;-89
2021/09/26 00:52:20;;;;;;;20.73;13.55;;;19.50;71.70;;;;;;4954095;28;20206;-89
2021/09/26 00:54:46;;;;;;;23.40;14.95;;;19.50;71.70;;;;;;4954890;28;20187;-89
2021/09/26 00:57:13;;;;;;;19.20;14.65;;;19.50;71.70;;;;;;4955902;28;20612;-89
2021/09/26 00:59:38;;;;;;;24.73;15.25;;;19.30;72.00;;;;;;4955840;28;20195;-90
2021/09/26 01:02:05;;;;;;;15.83;13.83;;;19.30;72.30;;;;;;4935994;29;20272;-90
2021/09/26 01:04:34;;;;;;;21.33;13.30;;;19.30;72.20;;;;;;4936743;29;20208;-89
2021/09/26 01:07:14;;;;;;;14.52;12.80;;;19.30;72.30;;;;;;4938835;29;20236;-90
2021/09/26 01:10:17;;;;;;;19.98;13.80;;;19.30;72.30;;;;;;4974181;28;20179;-89
2021/09/26 01:13:09;;;;;;;19.63;14.27;;;19.30;72.60;;;;;;4990532;28;20208;-89
2021/09/26 01:15:43;;;;;;;22.10;13.55;;;19.30;72.30;;;;;;4990603;28;20203;-89
2021/09/26 01:18:16;;;;;;;21.38;15.48;;;19.30;72.30;;;;;;4978985;28;20598;-90
2021/09/26 01:20:51;;;;;;;17.45;13.63;;;19.30;72.20;;;;;;4973482;28;20160;-88
2021/09/26 01:23:20;;;;;;;21.00;15.25;;;19.40;72.10;;;;;;4957262;28;20208;-89
2021/09/26 01:26:23;;;;;;;16.50;14.43;;;19.40;72.00;;;;;;4977513;28;20215;-89
2021/09/26 01:29:07;;;;;;;21.52;14.45;;;19.20;72.70;;;;;;4965551;28;20639;-89
2021/09/26 01:31:48;;;;;;;20.08;14.50;;;19.30;73.00;;;;;;4957845;29;20255;-89
2021/09/26 01:34:19;;;;;;;21.05;13.20;;;19.40;72.40;;;;;;4957812;28;20204;-90
2021/09/26 01:36:53;;;;;;;20.73;14.18;;;19.50;71.70;;;;;;4955120;28;20244;-90
2021/09/26 01:39:44;;;;;;;19.38;14.15;;;19.40;71.80;;;;;;4976944;28;20282;-90
2021/09/26 01:42:34;;;;;;;21.15;15.73;;;19.50;71.80;;;;;;4977051;28;20525;-90
2021/09/26 01:45:20;;;;;;;15.18;13.18;;;19.50;71.80;;;;;;4977156;28;20208;-90
2021/09/26 01:48:04;;;;;;;18.85;14.90;;;19.50;71.60;;;;;;4976948;28;20200;-89
2021/09/26 01:50:30;;;;;;;19.25;12.98;;;19.50;71.50;;;;;;4978280;28;20528;-90
2021/09/26 01:52:58;;;;;;;19.10;14.73;;;19.60;71.10;;;;;;4976425;28;20560;-89
2021/09/26 01:55:26;;;;;;;17.45;13.65;;;19.60;71.20;;;;;;4958426;28;20195;-89
2021/09/26 01:57:54;;;;;;;20.95;14.40;;;19.50;71.20;;;;;;4957548;28;20191;-90
2021/09/26 02:00:20;;;;;;;19.23;14.10;;;19.40;71.60;;;;;;4957331;28;20216;-90
2021/09/26 02:02:48;;;;;;;20.00;14.67;;;19.40;71.90;;;;;;4957220;28;20200;-90
2021/09/26 02:05:17;;;;;;;16.63;14.00;;;19.50;72.00;;;;;;4957707;28;20209;-90
2021/09/26 02:07:48;;;;;;;23.98;16.10;;;19.60;71.30;;;;;;4975729;28;20183;-90
2021/09/26 02:10:20;;;;;;;18.40;13.85;;;19.50;71.40;;;;;;4976588;28;20255;-90
2021/09/26 02:12:46;;;;;;;20.17;14.40;;;19.50;71.60;;;;;;4975801;28;20210;-89
2021/09/26 02:15:20;;;;;;;18.48;14.50;;;19.50;71.60;;;;;;4977563;28;20648;-90
2021/09/26 02:17:47;;;;;;;21.70;14.50;;;19.50;72.10;;;;;;4976518;28;20655;-90
2021/09/26 02:20:16;;;;;;;19.88;15.68;;;19.50;73.90;;;;;;4978900;28;20202;-90
2021/09/26 02:22:44;;;;;;;23.25;16.20;;;19.40;74.10;;;;;;4967976;28;20200;-90
2021/09/26 02:25:12;;;;;;;30.35;15.93;;;19.20;75.70;;;;;;4957052;28;20355;-90
2021/09/26 02:27:38;;;;;;;24.83;18.48;;;19.20;77.50;;;;;;4957718;28;20278;-89
2021/09/26 02:30:06;;;;;;;33.10;18.23;;;19.00;78.50;;;;;;4956510;28;20181;-89
2021/09/26 02:32:32;;;;;;;25.25;17.88;;;19.00;79.20;;;;;;4957456;28;20607;-89
2021/09/26 02:34:58;;;;;;;22.35;17.48;;;18.80;79.40;;;;;;4956139;28;20640;-89
2021/09/26 02:37:23;;;;;;;23.60;18.93;;;18.70;80.10;;;;;;4957615;28;20184;-89
2021/09/26 02:39:49;;;;;;;24.63;17.70;;;18.70;80.90;;;;;;4967527;28;20474;-89
2021/09/26 02:42:40;;;;;;;26.13;18.65;;;18.60;81.50;;;;;;4955515;28;20424;-89
2021/09/26 02:45:36;;;;;;;26.50;19.15;;;18.50;82.00;;;;;;4957674;28;20208;-89
2021/09/26 02:48:20;;;;;;;25.23;17.95;;;18.50;82.40;;;;;;4956349;28;20260;-89
2021/09/26 02:50:48;;;;;;;23.20;19.23;;;18.60;82.70;;;;;;4957299;28;20582;-89
2021/09/26 02:53:15;;;;;;;24.15;18.08;;;18.50;82.70;;;;;;4956558;28;20200;-89
2021/09/26 02:55:44;;;;;;;23.35;17.48;;;18.40;82.60;;;;;;4957438;28;20189;-89
2021/09/26 02:58:09;;;;;;;25.50;18.23;;;18.50;82.80;;;;;;4941071;29;20199;-89
2021/09/26 03:00:38;;;;;;;27.13;18.73;;;18.60;83.10;;;;;;4955680;28;20181;-89
2021/09/26 03:03:17;;;;;;;25.45;18.75;;;18.60;83.30;;;;;;4955641;28;20200;-89
2021/09/26 03:05:44;;;;;;;22.58;18.33;;;18.60;83.40;;;;;;4956158;28;20208;-89
2021/09/26 03:08:11;;;;;;;29.73;19.92;;;18.60;83.60;;;;;;4957271;28;20211;-89
2021/09/26 03:10:38;;;;;;;25.00;18.50;;;18.50;83.60;;;;;;4956373;28;20185;-89
2021/09/26 03:13:04;;;;;;;28.58;19.85;;;18.40;83.70;;;;;;4955302;28;20231;-89
2021/09/26 03:15:30;;;;;;;29.40;21.20;;;18.20;84.10;;;;;;4956081;28;20215;-89
2021/09/26 03:17:56;;;;;;;26.70;19.90;;;18.30;84.40;;;;;;4956584;28;20477;-90
2021/09/26 03:20:22;;;;;;;23.60;17.93;;;18.50;84.40;;;;;;4957068;28;20184;-89
2021/09/26 03:22:48;;;;;;;23.10;17.23;;;18.60;84.00;;;;;;4955597;28;20494;-89
2021/09/26 03:25:14;;;;;;;27.92;18.52;;;18.70;83.90;;;;;;4955868;28;20204;-89
2021/09/26 03:27:40;;;;;;;28.58;18.08;;;18.70;83.80;;;;;;4939634;29;20181;-89
2021/09/26 03:30:07;;;;;;;27.43;18.47;;;18.70;83.70;;;;;;4955821;28;20183;-89
2021/09/26 03:32:32;;;;;;;27.80;18.38;;;18.80;83.30;;;;;;4939197;29;20535;-89
2021/09/26 03:34:58;;;;;;;27.00;19.67;;;18.80;83.10;;;;;;4955781;28;20219;-89
2021/09/26 03:37:24;;;;;;;27.93;19.50;;;18.80;82.70;;;;;;4955592;28;20247;-89
2021/09/26 03:39:51;;;;;;;27.70;19.17;;;18.80;82.40;;;;;;4955583;28;20235;-89
2021/09/26 03:42:17;;;;;;;26.95;19.20;;;18.80;82.40;;;;;;4957170;28;20195;-90
2021/09/26 03:44:42;;;;;;;26.90;19.00;;;18.70;82.80;;;;;;4956934;28;20219;-90
2021/09/26 03:47:08;;;;;;;26.20;19.50;;;18.70;83.40;;;;;;4955438;28;20475;-89
2021/09/26 03:49:35;;;;;;;27.65;20.92;;;18.80;83.70;;;;;;4955350;28;20177;-89
2021/09/26 03:52:01;;;;;;;27.73;21.88;;;18.70;84.00;;;;;;4956858;28;20176;-89
2021/09/26 03:54:27;;;;;;;34.95;24.67;;;18.60;84.50;;;;;;4956654;28;20196;-89
2021/09/26 03:56:53;;;;;;;32.13;23.97;;;18.50;85.10;;;;;;4956109;28;20242;-90
2021/09/26 03:59:19;;;;;;;38.30;27.07;;;18.40;85.70;;;;;;4955525;28;20184;-89
2021/09/26 04:01:46;;;;;;;38.75;22.98;;;18.30;86.40;;;;;;4957267;28;20189;-90
2021/09/26 04:04:12;;;;;;;36.97;25.95;;;18.30;86.80;;;;;;4955075;28;20236;-90
2021/09/26 04:06:38;;;;;;;36.30;25.70;;;18.30;87.10;;;;;;4955298;28;20199;-89
2021/09/26 04:09:05;;;;;;;42.75;27.33;;;18.30;88.00;;;;;;4957010;28;20420;-89
2021/09/26 04:11:31;;;;;;;39.13;26.73;;;18.20;87.40;;;;;;4954469;28;21226;-89
2021/09/26 04:13:57;;;;;;;36.67;27.60;;;18.30;87.80;;;;;;4939080;29;20200;-90
2021/09/26 04:16:23;;;;;;;36.70;25.53;;;18.40;88.00;;;;;;4961221;28;20796;-89
2021/09/26 04:18:48;;;;;;;36.50;26.30;;;18.40;88.10;;;;;;4975584;28;20540;-89
2021/09/26 04:21:19;;;;;;;35.10;25.50;;;18.40;88.30;;;;;;4974125;28;20200;-89
2021/09/26 04:23:46;;;;;;;35.47;24.45;;;18.40;88.30;;;;;;4973883;28;20199;-89
2021/09/26 04:26:12;;;;;;;41.75;24.77;;;18.50;88.40;;;;;;4958433;28;20191;-89
2021/09/26 04:28:38;;;;;;;42.40;27.00;;;18.50;88.10;;;;;;4974231;28;20274;-89
2021/09/26 04:31:04;;;;;;;39.25;25.75;;;18.30;88.00;;;;;;4975667;28;20419;-91
2021/09/26 04:33:31;;;;;;;36.33;26.20;;;18.20;87.90;;;;;;4973860;28;20196;-90
2021/09/26 04:35:56;;;;;;;38.95;27.88;;;18.10;88.00;;;;;;4973791;28;20176;-90
2021/09/26 04:38:22;;;;;;;38.33;24.93;;;18.20;88.10;;;;;;4974003;28;20243;-90
2021/09/26 04:40:48;;;;;;;39.37;26.07;;;18.20;88.10;;;;;;4974082;28;20270;-90
2021/09/26 04:43:14;;;;;;;39.07;24.57;;;18.40;87.70;;;;;;4965115;28;20208;-89
2021/09/26 04:46:13;;;;;;;36.80;24.80;;;18.40;87.20;;;;;;4955200;29;20239;-90
2021/09/26 04:48:39;;;;;;;35.92;24.92;;;18.40;87.20;;;;;;4954840;29;20943;-89
2021/09/26 04:51:05;;;;;;;40.70;25.53;;;18.20;87.10;;;;;;4958107;29;20212;-90
2021/09/26 04:53:31;;;;;;;36.23;24.50;;;18.10;87.30;;;;;;4959514;28;20212;-90
2021/09/26 04:55:57;;;;;;;31.03;24.17;;;18.10;87.60;;;;;;4958289;29;20240;-89
2021/09/26 04:58:22;;;;;;;33.23;24.47;;;18.10;87.80;;;;;;4944362;29;20428;-90
2021/09/26 05:00:48;;;;;;;43.00;26.10;;;18.10;88.00;;;;;;4962098;28;20188;-90
2021/09/26 05:03:14;;;;;;;37.93;23.73;;;18.10;88.10;;;;;;4960272;28;20200;-90
2021/09/26 05:05:40;;;;;;;34.03;23.88;;;18.10;88.00;;;;;;4962270;28;20212;-90
2021/09/26 05:08:06;;;;;;;38.13;26.88;;;18.20;87.80;;;;;;4961559;28;20275;-94
2021/09/26 05:10:32;;;;;;;35.93;24.77;;;18.10;87.70;;;;;;4963832;28;20247;-93
2021/09/26 05:12:58;;;;;;;32.63;21.80;;;18.10;87.80;;;;;;4947381;29;20287;-94
2021/09/26 05:15:24;;;;;;;36.67;24.55;;;18.00;87.60;;;;;;4963291;28;20683;-93
2021/09/26 05:17:50;;;;;;;35.47;22.57;;;18.00;87.70;;;;;;4964285;28;20193;-93
2021/09/26 05:20:16;;;;;;;35.83;22.70;;;18.00;87.70;;;;;;4961889;28;20456;-93
2021/09/26 05:22:42;;;;;;;36.87;24.37;;;18.00;87.70;;;;;;4960376;28;20204;-93
2021/09/26 05:25:08;;;;;;;37.00;24.35;;;18.10;87.90;;;;;;4959847;28;21081;-92
2021/09/26 05:27:35;;;;;;;37.42;24.15;;;18.10;88.10;;;;;;4962033;28;20204;-93
2021/09/26 05:30:02;;;;;;;35.85;23.70;;;18.20;88.20;;;;;;4961720;28;20196;-92
2021/09/26 05:32:28;;;;;;;38.08;25.55;;;18.20;88.10;;;;;;4960628;28;20204;-92
2021/09/26 05:34:54;;;;;;;35.97;24.45;;;18.10;88.00;;;;;;4958677;28;20188;-91
2021/09/26 05:37:19;;;;;;;36.80;26.33;;;18.20;87.90;;;;;;4943414;28;20193;-91
2021/09/26 05:39:45;;;;;;;38.13;24.57;;;18.10;88.00;;;;;;4939927;29;20182;-91
2021/09/26 05:42:11;;;;;;;35.03;22.70;;;18.20;87.90;;;;;;4939573;29;20189;-92
2021/09/26 05:44:37;;;;;;;36.20;23.17;;;18.40;87.50;;;;;;4939732;29;20224;-92
2021/09/26 05:47:07;;;;;;;36.20;22.75;;;18.40;87.10;;;;;;4940354;29;20189;-92
2021/09/26 05:49:37;;;;;;;34.53;22.83;;;18.50;86.70;;;;;;4940760;29;20272;-93
2021/09/26 05:52:07;;;;;;;32.88;22.45;;;18.60;86.80;;;;;;4941949;29;20216;-93
2021/09/26 05:54:34;;;;;;;31.35;22.63;;;18.50;85.90;;;;;;4942381;29;20193;-93
2021/09/26 05:57:01;;;;;;;28.95;21.50;;;18.40;85.80;;;;;;4942687;29;20189;-93
2021/09/26 05:59:26;;;;;;;33.53;21.45;;;18.40;86.00;;;;;;4941970;29;20186;-92
2021/09/26 06:01:52;;;;;;;33.13;22.77;;;18.40;86.10;;;;;;4943209;29;20181;-93
2021/09/26 06:04:18;;;;;;;32.87;21.33;;;18.50;85.90;;;;;;4942455;29;20493;-93
2021/09/26 06:06:44;;;;;;;27.90;21.00;;;18.80;85.30;;;;;;4948891;28;20597;-93
2021/09/26 06:09:09;;;;;;;29.03;18.70;;;18.80;84.70;;;;;;4961963;28;20181;-93
2021/09/26 06:11:35;;;;;;;25.60;18.40;;;18.80;84.50;;;;;;4960875;28;20631;-93
2021/09/26 06:14:01;;;;;;;21.63;16.50;;;18.70;84.60;;;;;;4962546;28;20197;-93
2021/09/26 06:16:26;;;;;;;26.80;18.33;;;18.60;85.00;;;;;;4959811;28;20655;-93
2021/09/26 06:18:52;;;;;;;27.87;18.67;;;18.50;85.30;;;;;;4960106;28;20187;-93
2021/09/26 06:21:18;;;;;;;28.60;18.40;;;18.50;85.50;;;;;;4961332;28;20184;-93
2021/09/26 06:23:45;;;;;;;31.93;18.60;;;18.50;85.60;;;;;;4960712;28;20201;-93
2021/09/26 06:26:10;;;;;;;24.70;18.20;;;18.60;85.60;;;;;;4960808;28;20258;-92
2021/09/26 06:28:36;;;;;;;25.60;17.77;;;18.60;85.70;;;;;;4963914;28;20263;-91
2021/09/26 06:31:02;;;;;;;24.07;18.67;;;18.60;85.70;;;;;;4961057;28;20943;-91
2021/09/26 06:33:28;;;;;;;23.57;16.87;;;18.80;85.70;;;;;;4964418;28;20541;-92
2021/09/26 06:36:00;;;;;;;23.57;16.17;;;19.00;84.90;;;;;;4967784;28;20426;-92
2021/09/26 06:38:26;;;;;;;22.20;15.45;;;19.00;84.20;;;;;;4965282;28;20260;-90
2021/09/26 06:40:52;;;;;;;25.23;15.50;;;19.00;83.80;;;;;;4976455;28;20191;-90
2021/09/26 06:43:18;;;;;;;28.47;16.73;;;19.10;83.60;;;;;;4970114;28;20205;-91
2021/09/26 06:45:44;;;;;;;37.03;13.67;;;19.20;83.30;;;;;;4971872;28;20471;-93
2021/09/26 06:48:10;;;;;;;31.27;16.73;;;19.20;83.20;;;;;;4970441;28;20554;-93
2021/09/26 06:50:36;;;;;;;26.08;15.70;;;19.40;82.80;;;;;;4963532;28;20188;-91
2021/09/26 06:53:02;;;;;;;24.03;14.67;;;19.40;82.50;;;;;;4960979;28;20208;-94
2021/09/26 06:55:28;;;;;;;17.37;12.40;;;19.50;82.50;;;;;;4968026;28;20486;-94
2021/09/26 06:57:54;;;;;;;19.73;12.25;;;19.40;82.00;;;;;;4961963;29;20428;-92
2021/09/26 07:00:20;;;;;;;22.13;12.20;;;19.40;81.90;;;;;;4970073;28;20208;-94
2021/09/26 07:02:46;;;;;;;21.90;13.80;;;19.70;81.80;;;;;;4962218;28;20212;-91
2021/09/26 07:05:12;;;;;;;18.25;13.38;;;19.80;81.40;;;;;;4962691;28;20683;-91
2021/09/26 07:07:38;;;;;;;18.87;12.20;;;19.90;80.70;;;;;;4938341;28;20260;-94
2021/09/26 07:10:05;;;;;;;18.73;13.43;;;20.00;80.20;;;;;;4958383;28;20436;-94
2021/09/26 07:12:30;;;;;;;18.70;13.65;;;20.10;80.00;;;;;;4959466;28;20225;-92
2021/09/26 07:15:01;;;;;;;19.00;12.70;;;20.20;79.50;;;;;;4960687;28;20169;-92
2021/09/26 07:17:27;;;;;;;15.35;11.82;;;20.20;79.10;;;;;;4960591;28;20425;-95
2021/09/26 07:19:53;;;;;;;23.20;15.45;;;20.20;79.10;;;;;;4992207;28;20247;-92
2021/09/26 07:22:23;;;;;;;19.73;13.17;;;20.40;79.10;;;;;;4998073;28;20155;-94
2021/09/26 07:24:52;;;;;;;18.77;14.52;;;20.40;79.10;;;;;;4998129;28;20212;-90
2021/09/26 07:27:19;;;;;;;22.52;15.27;;;20.40;79.10;;;;;;4996989;28;20180;-91
2021/09/26 07:29:45;;;;;;;21.90;15.93;;;20.60;78.70;;;;;;4989512;28;20184;-92
2021/09/26 07:32:12;;;;;;;20.65;15.40;;;20.70;78.60;;;;;;4978311;28;20203;-89
2021/09/26 07:34:38;;;;;;;21.08;14.88;;;20.60;78.20;;;;;;4974377;28;20194;-90
2021/09/26 07:37:05;;;;;;;23.85;16.70;;;20.70;78.50;;;;;;4959247;28;20173;-90
2021/09/26 07:39:31;;;;;;;24.42;16.50;;;20.70;78.40;;;;;;4956377;28;20273;-90
2021/09/26 07:41:57;;;;;;;22.00;16.60;;;20.80;78.00;;;;;;4956822;28;20208;-90
2021/09/26 07:44:31;;;;;;;26.10;17.20;;;20.80;77.90;;;;;;5134423;27;20549;-89
2021/09/26 07:46:57;;;;;;;27.45;17.27;;;20.90;77.80;;;;;;5114614;28;20588;-89
2021/09/26 07:49:22;;;;;;;21.27;17.27;;;20.90;78.30;;;;;;5116000;28;20186;-90
2021/09/26 07:51:48;;;;;;;19.20;14.80;;;21.00;78.30;;;;;;5114454;28;20181;-89
2021/09/26 07:54:16;;;;;;;20.17;15.32;;;20.80;78.10;;;;;;5114626;28;20195;-90
2021/09/26 07:56:45;;;;;;;20.90;15.75;;;20.90;78.50;;;;;;5115028;28;20265;-89
2021/09/26 07:59:12;;;;;;;20.33;15.00;;;21.20;78.00;;;;;;5114591;28;20253;-92
2021/09/26 08:01:37;;;;;;;23.88;17.80;;;21.50;76.30;;;;;;5114339;28;20210;-91
2021/09/26 08:04:03;;;;;;;21.03;15.73;;;21.60;75.80;;;;;;5133409;28;20688;-92
2021/09/26 08:06:32;;;;;;;19.35;15.82;;;21.80;74.70;;;;;;5115317;28;20182;-92
2021/09/26 08:08:58;;;;;;;24.42;17.05;;;21.80;74.00;;;;;;5114921;28;20209;-92
2021/09/26 08:11:24;;;;;;;23.37;16.60;;;21.80;73.90;;;;;;5114296;28;20216;-92
2021/09/26 08:13:49;;;;;;;18.00;15.00;;;21.90;73.80;;;;;;5133417;28;20190;-91
2021/09/26 08:16:16;;;;;;;24.90;15.30;;;21.90;73.90;;;;;;5115107;28;20591;-92
2021/09/26 08:18:42;;;;;;;20.57;15.57;;;21.90;74.10;;;;;;5130308;28;20182;-92
2021/09/26 08:21:07;;;;;;;20.13;15.65;;;21.80;74.30;;;;;;5132423;28;20511;-92
2021/09/26 08:23:33;;;;;;;20.57;16.63;;;21.90;74.50;;;;;;5118397;28;20753;-92
2021/09/26 08:26:02;;;;;;;27.97;16.77;;;22.00;74.30;;;;;;5122974;27;20242;-96
2021/09/26 08:28:29;;;;;;;19.65;14.98;;;22.00;73.10;;;;;;5146628;28;20808;-95
2021/09/26 08:30:54;;;;;;;21.70;15.37;;;22.00;73.10;;;;;;5125183;28;20185;-93
2021/09/26 08:33:20;;;;;;;21.90;16.93;;;22.00;73.40;;;;;;5142938;27;20444;-94
2021/09/26 08:36:08;;;;;;;23.43;16.93;;;22.20;72.60;;;;;;5116235;28;20170;-92
2021/09/26 08:38:34;;;;;;;22.52;17.15;;;22.00;71.70;;;;;;5115867;28;20502;-94
2021/09/26 08:41:00;;;;;;;22.20;16.98;;;22.00;72.60;;;;;;5116274;28;20181;-94
2021/09/26 08:43:27;;;;;;;23.45;17.30;;;21.90;72.00;;;;;;5115504;28;20232;-93
2021/09/26 08:45:56;;;;;;;22.35;16.75;;;21.90;72.10;;;;;;5115451;28;20228;-94
2021/09/26 08:48:23;;;;;;;26.00;19.92;;;21.70;73.20;;;;;;5115341;28;20171;-94
2021/09/26 08:50:50;;;;;;;26.13;19.05;;;21.70;73.40;;;;;;5116401;28;20171;-95
2021/09/26 08:53:17;;;;;;;28.17;17.67;;;21.50;73.10;;;;;;5116685;28;20205;-92
2021/09/26 08:55:45;;;;;;;24.10;17.50;;;21.70;73.40;;;;;;5104701;28;20520;-93
2021/09/26 08:58:11;;;;;;;23.02;17.38;;;21.70;73.70;;;;;;5102139;28;20413;-93
2021/09/26 09:00:37;;;;;;;23.80;18.67;;;21.80;73.20;;;;;;5111615;28;20190;-92
2021/09/26 09:03:09;;;;;;;26.03;17.27;;;21.90;72.90;;;;;;5103032;28;20249;-93
2021/09/26 09:05:39;;;;;;;24.73;17.65;;;22.00;72.10;;;;;;5102873;28;20216;-93
2021/09/26 09:08:10;;;;;;;27.67;17.70;;;22.20;71.40;;;;;;5102148;28;20182;-92
2021/09/26 09:10:56;;;;;;;26.58;18.45;;;22.10;71.10;;;;;;5102996;28;20409;-93
2021/09/26 09:13:35;;;;;;;26.20;18.35;;;22.10;71.80;;;;;;5100812;28;20302;-93
2021/09/26 09:16:08;;;;;;;23.98;17.85;;;22.10;72.00;;;;;;5120744;28;20273;-93
2021/09/26 09:18:43;;;;;;;26.43;18.50;;;22.30;71.90;;;;;;5100855;28;20187;-93
2021/09/26 09:21:25;;;;;;;28.40;20.60;;;22.10;70.60;;;;;;5100827;28;20416;-93
2021/09/26 09:24:11;;;;;;;25.53;19.60;;;22.10;70.20;;;;;;5100670;28;20467;-93
2021/09/26 09:26:38;;;;;;;27.17;17.60;;;22.40;70.10;;;;;;5100786;28;20393;-93
2021/09/26 09:29:05;;;;;;;25.40;17.80;;;22.40;69.40;;;;;;5085338;28;20452;-93
2021/09/26 09:31:32;;;;;;;23.83;17.73;;;22.70;69.00;;;;;;5100970;28;20413;-93
2021/09/26 09:33:58;;;;;;;22.60;16.40;;;22.80;68.80;;;;;;5105113;28;20448;-93
2021/09/26 09:36:24;;;;;;;22.27;15.63;;;22.90;69.70;;;;;;5102106;28;20421;-93
2021/09/26 09:38:53;;;;;;;24.53;17.80;;;23.00;67.90;;;;;;5102034;28;20420;-93
2021/09/26 09:41:42;;;;;;;21.20;16.67;;;23.00;67.30;;;;;;5112770;28;20498;-92
2021/09/26 09:44:12;;;;;;;23.30;17.53;;;23.30;66.80;;;;;;5112100;28;20461;-92
2021/09/26 09:46:47;;;;;;;23.70;17.37;;;23.00;65.70;;;;;;5092496;28;20413;-93
2021/09/26 09:49:25;;;;;;;32.87;17.83;;;23.20;66.70;;;;;;5100941;28;20412;-92
2021/09/26 09:52:00;;;;;;;25.03;18.53;;;23.40;66.10;;;;;;5103082;28;20412;-90
2021/09/26 09:54:38;;;;;;;26.43;18.07;;;23.40;65.30;;;;;;5103680;28;20451;-91
2021/09/26 09:57:14;;;;;;;21.73;16.57;;;23.60;65.00;;;;;;5103645;28;20500;-91
2021/09/26 09:59:44;;;;;;;26.77;17.33;;;23.60;65.30;;;;;;5103737;28;20916;-90
2021/09/26 10:02:10;;;;;;;24.20;17.30;;;23.50;65.30;;;;;;5101705;28;20500;-90
2021/09/26 10:04:39;;;;;;;24.23;18.60;;;23.20;64.70;;;;;;5115854;28;20912;-90
2021/09/26 10:07:19;;;;;;;26.40;18.60;;;22.80;65.40;;;;;;5118391;28;20501;-90
2021/09/26 10:09:45;;;;;;;30.10;19.77;;;22.60;66.30;;;;;;5116475;28;20927;-90
2021/09/26 10:12:22;;;;;;;25.90;18.60;;;22.50;66.60;;;;;;5117930;28;20424;-90
2021/09/26 10:14:51;;;;;;;26.57;19.70;;;22.80;67.30;;;;;;5111652;28;20420;-91
2021/09/26 10:17:17;;;;;;;24.20;18.60;;;22.90;66.90;;;;;;5084279;28;20492;-91
2021/09/26 10:19:44;;;;;;;26.43;19.10;;;23.10;66.90;;;;;;5101604;28;20409;-92
2021/09/26 10:22:15;;;;;;;27.57;19.70;;;23.30;66.70;;;;;;5105416;27;20495;-92
2021/09/26 10:24:45;;;;;;;26.80;19.00;;;23.40;66.70;;;;;;5126088;27;20491;-92
2021/09/26 10:27:13;;;;;;;39.03;22.13;;;23.60;66.40;;;;;;5105487;28;20486;-92
2021/09/26 10:29:41;;;;;;;27.70;19.70;;;23.40;65.70;;;;;;5100183;28;20463;-92
2021/09/26 10:32:12;;;;;;;28.93;20.13;;;23.60;66.10;;;;;;5118461;28;20741;-92
2021/09/26 10:34:39;;;;;;;25.43;18.47;;;23.50;66.50;;;;;;5099357;28;20413;-92
2021/09/26 10:37:11;;;;;;;29.57;20.80;;;23.60;65.80;;;;;;5101369;28;20413;-92
2021/09/26 10:39:38;;;;;;;28.40;20.47;;;23.40;65.60;;;;;;5100018;28;20804;-92
2021/09/26 10:42:08;;;;;;;24.20;18.87;;;23.50;65.80;;;;;;5082542;28;20417;-92
2021/09/26 10:44:39;;;;;;;26.50;19.07;;;23.60;65.40;;;;;;5101916;28;20420;-92
2021/09/26 10:47:07;;;;;;;24.70;19.47;;;23.60;65.40;;;;;;5109988;28;20424;-91
2021/09/26 10:49:39;;;;;;;25.67;17.47;;;23.60;65.70;;;;;;5115453;28;20441;-91
2021/09/26 10:52:24;;;;;;;29.87;19.40;;;23.60;65.30;;;;;;5098436;28;20516;-90
2021/09/26 10:54:50;;;;;;;24.00;18.20;;;23.40;65.00;;;;;;5117013;28;20864;-92
2021/09/26 10:57:19;;;;;;;28.67;21.80;;;23.40;65.00;;;;;;5096700;28;20930;-92
2021/09/26 10:59:52;;;;;;;25.67;19.30;;;23.40;65.50;;;;;;5099088;28;20469;-92
2021/09/26 11:02:24;;;;;;;22.30;17.07;;;23.60;65.40;;;;;;5098926;28;20504;-91
2021/09/26 11:04:54;;;;;;;23.67;18.40;;;23.80;65.00;;;;;;5098952;28;20420;-92
2021/09/26 11:07:31;;;;;;;23.33;16.90;;;24.00;64.40;;;;;;5098626;28;20437;-92
2021/09/26 11:09:59;;;;;;;25.80;16.80;;;24.20;64.80;;;;;;5117045;28;20473;-92
2021/09/26 11:12:46;;;;;;;24.47;15.60;;;24.40;63.30;;;;;;5115503;28;20938;-92
2021/09/26 11:15:26;;;;;;;23.33;16.50;;;23.90;63.00;;;;;;5115827;28;20770;-91
2021/09/26 11:17:57;;;;;;;17.27;14.70;;;24.10;63.60;;;;;;5098806;28;20472;-92
2021/09/26 11:20:26;;;;;;;17.40;13.23;;;24.30;62.40;;;;;;5099077;28;20433;-92
2021/09/26 11:23:10;;;;;;;15.97;12.50;;;24.40;61.90;;;;;;5098489;28;20967;-92
2021/09/26 11:26:18;;;;;;;15.63;11.67;;;24.10;59.90;;;;;;5097881;28;20416;-91
2021/09/26 11:29:00;;;;;;;14.60;11.00;;;24.20;60.50;;;;;;5097675;28;20428;-92
2021/09/26 11:31:40;;;;;;;19.90;11.77;;;24.20;61.90;;;;;;5097305;28;20421;-92
2021/09/26 11:34:06;;;;;;;15.50;12.90;;;24.60;62.10;;;;;;5098043;28;20452;-91
2021/09/26 11:36:32;;;;;;;16.80;12.70;;;24.70;60.20;;;;;;5099377;28;20421;-91
2021/09/26 11:39:25;;;;;;;29.13;15.93;;;24.90;60.20;;;;;;5106558;28;20908;-92
2021/09/26 11:41:51;;;;;;;19.33;13.23;;;24.40;59.90;;;;;;5105903;28;20431;-92
2021/09/26 11:44:17;;;;;;;17.53;12.37;;;24.40;60.30;;;;;;5096593;28;20464;-91
2021/09/26 11:46:47;;;;;;;15.40;10.83;;;24.50;60.20;;;;;;5097684;28;20175;-92
2021/09/26 11:49:13;;;;;;;13.03;10.83;;;24.20;60.10;;;;;;5097094;28;20488;-91
2021/09/26 11:51:39;;;;;;;13.67;11.83;;;24.40;60.50;;;;;;5096925;28;20462;-92
2021/09/26 11:54:06;;;;;;;16.53;11.13;;;24.30;60.40;;;;;;5114167;28;20531;-92
2021/09/26 11:56:38;;;;;;;15.17;11.43;;;24.60;59.70;;;;;;5065747;28;20421;-91
2021/09/26 11:59:06;;;;;;;14.97;11.53;;;24.70;59.20;;;;;;5076824;28;20500;-91
2021/09/26 12:01:39;;;;;;;11.33;9.87;;;24.80;58.70;;;;;;5111117;28;20464;-91
2021/09/26 12:04:15;;;;;;;12.90;9.80;;;24.90;58.80;;;;;;5115232;28;20457;-91
2021/09/26 12:07:03;;;;;;;11.83;10.33;;;25.10;58.40;;;;;;5102226;28;20500;-91
2021/09/26 12:09:42;;;;;;;21.13;10.57;;;24.60;57.70;;;;;;5097035;28;20421;-93
2021/09/26 12:12:08;;;;;;;16.23;8.90;;;24.40;58.90;;;;;;5103348;28;20409;-93
2021/09/26 12:14:34;;;;;;;16.27;9.60;;;24.50;59.70;;;;;;5100247;28;20543;-93
2021/09/26 12:17:02;;;;;;;12.63;9.20;;;24.40;59.10;;;;;;5102118;28;20183;-93
2021/09/26 12:19:29;;;;;;;14.60;10.37;;;24.40;60.20;;;;;;5100121;28;20413;-93
2021/09/26 12:22:18;;;;;;;10.17;8.37;;;24.50;59.30;;;;;;5101119;28;20421;-93
2021/09/26 12:24:54;;;;;;;11.43;8.70;;;24.60;59.50;;;;;;5100299;28;20505;-92
2021/09/26 12:27:47;;;;;;;13.83;9.10;;;24.70;59.70;;;;;;5099841;28;20505;-91
2021/09/26 12:30:20;;;;;;;11.63;8.10;;;24.80;59.40;;;;;;5108250;28;20457;-91
2021/09/26 12:33:04;;;;;;;8.90;7.40;;;24.80;59.30;;;;;;5113279;28;20444;-91
2021/09/26 12:35:46;;;;;;;12.77;8.57;;;24.50;58.50;;;;;;5102838;28;20408;-92
2021/09/26 12:38:24;;;;;;;12.50;8.87;;;24.60;59.20;;;;;;5102874;28;20517;-91
2021/09/26 12:41:05;;;;;;;10.30;7.73;;;24.50;58.60;;;;;;5102293;28;20915;-91